Time;durP1;ratioP1;P1;durP2;ratioP2;P2;SDS_P1;SDS_P2;PMS_P1;PMS_P2;Temp;Humidity;BMP_temperature;BMP_pressure;BME280_temperature;BME280_humidity;BME280_pressure;Samples;Min_cycle;Max_cycle;Signal;HPM_P1;HPM_P2
2021/06/15 00:01:13;;;;;;;1.50;0.90;;;20.60;84.50;;;;;;5091064;28;20480;-82
2021/06/15 00:03:40;;;;;;;1.50;0.90;;;20.60;84.70;;;;;;5113580;28;20474;-80
2021/06/15 00:06:07;;;;;;;1.50;0.90;;;20.60;84.90;;;;;;5089334;28;20475;-80
2021/06/15 00:08:35;;;;;;;1.50;1.00;;;20.50;84.70;;;;;;5114363;28;20460;-81
2021/06/15 00:11:02;;;;;;;1.50;0.90;;;20.50;84.70;;;;;;5091467;28;20876;-80
2021/06/15 00:13:29;;;;;;;1.50;0.90;;;20.50;85.60;;;;;;5110632;28;20476;-81
2021/06/15 00:15:56;;;;;;;1.93;1.10;;;20.40;86.30;;;;;;5085505;28;20465;-80
2021/06/15 00:18:23;;;;;;;1.47;0.93;;;20.40;85.50;;;;;;5108612;28;20954;-80
2021/06/15 00:20:51;;;;;;;1.43;0.90;;;20.40;86.50;;;;;;5085516;27;20456;-81
2021/06/15 00:23:20;;;;;;;1.43;0.90;;;20.30;85.40;;;;;;5111810;28;20488;-81
2021/06/15 00:25:48;;;;;;;1.50;0.90;;;20.30;85.30;;;;;;5090862;28;20488;-81
2021/06/15 00:28:15;;;;;;;1.43;0.90;;;20.30;85.70;;;;;;5109010;28;20528;-81
2021/06/15 00:30:42;;;;;;;1.50;0.90;;;20.20;85.90;;;;;;5098299;28;20532;-81
2021/06/15 00:33:09;;;;;;;1.47;0.90;;;20.20;85.80;;;;;;5102332;27;20481;-81
2021/06/15 00:35:36;;;;;;;1.47;0.90;;;20.20;87.20;;;;;;5096973;28;20463;-80
2021/06/15 00:38:03;;;;;;;1.47;0.93;;;20.20;86.80;;;;;;5104365;28;20495;-81
2021/06/15 00:40:30;;;;;;;1.47;0.90;;;20.10;86.90;;;;;;5097490;28;20448;-81
2021/06/15 00:42:58;;;;;;;1.43;0.90;;;20.10;86.40;;;;;;5104247;28;20586;-81
2021/06/15 00:45:28;;;;;;;1.40;0.90;;;20.10;86.30;;;;;;5095415;28;20544;-81
2021/06/15 00:47:55;;;;;;;1.40;0.90;;;20.10;86.50;;;;;;5099821;28;20513;-81
2021/06/15 00:50:25;;;;;;;1.50;1.00;;;20.00;86.90;;;;;;5098866;28;20467;-81
2021/06/15 00:52:53;;;;;;;1.47;0.90;;;20.00;87.40;;;;;;5091640;28;20556;-81
2021/06/15 00:55:20;;;;;;;1.47;0.93;;;20.00;87.60;;;;;;5097628;28;20511;-81
2021/06/15 00:57:47;;;;;;;1.50;0.90;;;19.90;87.00;;;;;;5089672;28;20477;-80
2021/06/15 01:00:17;;;;;;;1.47;0.90;;;19.90;87.20;;;;;;5098097;28;20456;-81
2021/06/15 01:02:43;;;;;;;1.43;0.90;;;19.90;86.60;;;;;;5099139;28;20483;-81
2021/06/15 01:05:13;;;;;;;1.47;0.90;;;19.90;87.70;;;;;;5097999;28;20602;-81
2021/06/15 01:07:48;;;;;;;1.43;0.90;;;19.80;88.20;;;;;;5100590;28;20855;-81
2021/06/15 01:10:26;;;;;;;1.43;0.90;;;19.80;87.60;;;;;;5099511;28;20464;-81
2021/06/15 01:13:01;;;;;;;1.43;0.90;;;19.80;87.20;;;;;;5101968;28;21077;-82
2021/06/15 01:15:33;;;;;;;1.43;0.90;;;19.80;87.50;;;;;;5100894;28;20662;-81
2021/06/15 01:18:05;;;;;;;1.47;0.90;;;19.70;88.60;;;;;;5106412;27;20499;-81
2021/06/15 01:20:36;;;;;;;1.47;0.90;;;19.70;87.50;;;;;;5100436;28;20505;-81
2021/06/15 01:23:29;;;;;;;1.50;1.00;;;19.70;88.20;;;;;;5092966;28;20501;-81
2021/06/15 01:26:04;;;;;;;1.50;1.00;;;19.60;88.50;;;;;;5086252;27;20482;-80
2021/06/15 01:28:39;;;;;;;1.47;0.90;;;19.60;89.00;;;;;;5114642;28;20466;-81
2021/06/15 01:31:11;;;;;;;1.43;0.90;;;19.60;88.30;;;;;;5093285;27;20932;-80
2021/06/15 01:33:41;;;;;;;1.50;0.90;;;19.50;88.70;;;;;;5113248;28;20700;-80
2021/06/15 01:36:10;;;;;;;1.47;0.90;;;19.50;88.40;;;;;;5091253;28;20471;-81
2021/06/15 01:38:43;;;;;;;1.47;0.90;;;19.50;89.60;;;;;;5106076;28;20532;-81
2021/06/15 01:41:12;;;;;;;1.50;0.90;;;19.50;89.30;;;;;;5088512;28;20480;-81
2021/06/15 01:43:43;;;;;;;1.40;0.90;;;19.40;90.00;;;;;;5107055;28;20631;-81
2021/06/15 01:46:13;;;;;;;1.43;0.90;;;19.40;90.20;;;;;;5082489;28;20477;-81
2021/06/15 01:48:46;;;;;;;1.50;0.90;;;19.40;90.20;;;;;;5102365;28;20681;-81
2021/06/15 01:51:13;;;;;;;1.50;1.00;;;19.40;90.30;;;;;;5085041;27;20485;-81
2021/06/15 01:53:45;;;;;;;1.50;0.90;;;19.30;90.50;;;;;;5104433;28;20460;-81
2021/06/15 01:56:16;;;;;;;1.50;1.00;;;19.30;90.30;;;;;;5087065;28;20475;-81
2021/06/15 01:58:46;;;;;;;1.40;0.90;;;19.30;90.30;;;;;;5108780;28;20457;-81
2021/06/15 02:01:14;;;;;;;1.50;0.90;;;19.30;91.00;;;;;;5090183;27;20476;-81
2021/06/15 02:03:42;;;;;;;1.50;0.90;;;19.30;91.30;;;;;;5106681;28;20473;-81
2021/06/15 02:06:09;;;;;;;1.50;1.00;;;19.30;91.50;;;;;;5081957;28;20506;-81
2021/06/15 02:08:38;;;;;;;1.43;0.90;;;19.20;92.10;;;;;;5097959;28;20961;-81
2021/06/15 02:11:06;;;;;;;1.70;1.50;;;19.20;91.90;;;;;;5084051;27;20735;-81
2021/06/15 02:13:36;;;;;;;1.50;1.00;;;19.20;90.50;;;;;;5108299;28;21028;-81
2021/06/15 02:16:06;;;;;;;1.50;0.90;;;19.20;91.30;;;;;;5084618;28;20836;-81
2021/06/15 02:18:34;;;;;;;1.50;0.90;;;19.20;91.30;;;;;;5106647;28;20471;-81
2021/06/15 02:21:07;;;;;;;1.50;0.90;;;19.10;91.80;;;;;;5086360;28;20470;-81
2021/06/15 02:23:36;;;;;;;1.50;1.00;;;19.10;91.70;;;;;;5107524;28;20512;-81
2021/06/15 02:26:08;;;;;;;1.40;0.90;;;19.10;91.90;;;;;;5088444;27;20484;-82
2021/06/15 02:28:35;;;;;;;1.50;1.00;;;19.10;92.90;;;;;;5110283;28;20460;-82
2021/06/15 02:31:03;;;;;;;1.50;1.00;;;19.10;91.80;;;;;;5083982;28;20465;-80
2021/06/15 02:33:34;;;;;;;1.50;0.90;;;19.10;92.20;;;;;;5104875;28;20477;-80
2021/06/15 02:36:06;;;;;;;1.47;0.90;;;19.10;92.30;;;;;;5084090;28;20468;-81
2021/06/15 02:38:35;;;;;;;1.50;0.90;;;19.10;93.10;;;;;;5110797;28;20463;-80
2021/06/15 02:41:05;;;;;;;1.47;0.90;;;19.10;92.80;;;;;;5083450;27;20464;-80
2021/06/15 02:43:33;;;;;;;1.47;0.90;;;19.00;92.70;;;;;;5103005;28;20484;-81
2021/06/15 02:46:01;;;;;;;1.47;1.00;;;19.00;92.90;;;;;;5084125;28;20480;-80
2021/06/15 02:48:34;;;;;;;1.50;0.90;;;19.00;93.70;;;;;;5107686;28;20467;-80
2021/06/15 02:51:02;;;;;;;1.50;1.00;;;19.00;92.60;;;;;;5085329;27;20463;-80
2021/06/15 02:53:36;;;;;;;1.43;0.90;;;18.90;92.20;;;;;;5107699;28;20491;-81
2021/06/15 02:56:07;;;;;;;1.50;0.90;;;18.90;94.10;;;;;;5082622;28;20458;-80
2021/06/15 02:58:34;;;;;;;1.50;0.90;;;18.90;94.50;;;;;;5107597;28;20657;-82
2021/06/15 03:01:00;;;;;;;1.50;0.90;;;18.80;93.60;;;;;;5083207;28;20911;-81
2021/06/15 03:03:27;;;;;;;1.50;1.00;;;18.80;94.40;;;;;;5106549;28;20494;-81
2021/06/15 03:05:55;;;;;;;1.50;0.93;;;18.80;93.70;;;;;;5081071;28;20875;-81
2021/06/15 03:08:22;;;;;;;1.47;0.90;;;18.80;95.30;;;;;;5109731;28;20456;-81
2021/06/15 03:10:49;;;;;;;1.50;0.90;;;18.80;95.00;;;;;;5082804;28;20865;-82
2021/06/15 03:13:20;;;;;;;1.50;0.90;;;18.80;94.40;;;;;;5107662;28;20955;-81
2021/06/15 03:15:48;;;;;;;1.50;0.90;;;18.70;94.50;;;;;;5085245;28;20461;-81
2021/06/15 03:18:26;;;;;;;1.50;1.00;;;18.70;95.10;;;;;;5111144;28;20468;-81
2021/06/15 03:20:55;;;;;;;1.47;0.90;;;18.70;95.10;;;;;;5077667;28;20457;-80
2021/06/15 03:23:43;;;;;;;1.50;0.90;;;18.70;94.30;;;;;;5105071;28;20933;-80
2021/06/15 03:26:17;;;;;;;1.43;0.90;;;18.60;95.20;;;;;;5086147;27;20470;-83
2021/06/15 03:28:48;;;;;;;1.50;1.00;;;18.60;94.80;;;;;;5104845;28;20460;-81
2021/06/15 03:31:19;;;;;;;1.50;1.00;;;18.60;94.90;;;;;;5087608;28;20498;-80
2021/06/15 03:33:50;;;;;;;1.50;0.90;;;18.60;95.20;;;;;;5103202;28;20464;-82
2021/06/15 03:36:19;;;;;;;1.40;0.90;;;18.60;94.50;;;;;;5087360;28;20463;-80
2021/06/15 03:38:48;;;;;;;1.50;0.90;;;18.60;95.10;;;;;;5104974;28;20461;-80
2021/06/15 03:41:17;;;;;;;1.43;0.90;;;18.60;95.90;;;;;;5088489;27;20472;-79
2021/06/15 03:43:47;;;;;;;1.40;0.90;;;18.60;95.60;;;;;;5104120;28;20464;-81
2021/06/15 03:46:15;;;;;;;1.43;0.90;;;18.60;95.90;;;;;;5086905;28;21022;-82
2021/06/15 03:48:45;;;;;;;1.50;1.00;;;18.60;95.60;;;;;;5098982;28;20456;-80
2021/06/15 03:51:26;;;;;;;1.43;0.90;;;18.60;96.00;;;;;;5082322;28;20479;-79
2021/06/15 03:54:05;;;;;;;1.43;0.97;;;18.60;96.30;;;;;;5096325;28;20456;-80
2021/06/15 03:56:34;;;;;;;1.50;0.90;;;18.60;97.20;;;;;;5084670;27;20517;-80
2021/06/15 03:59:02;;;;;;;1.40;0.90;;;18.50;97.60;;;;;;5103399;28;20457;-80
2021/06/15 04:01:30;;;;;;;1.50;0.90;;;18.50;96.70;;;;;;5084162;27;20476;-80
2021/06/15 04:03:59;;;;;;;1.50;0.90;;;18.50;97.00;;;;;;5103207;28;20559;-80
2021/06/15 04:06:26;;;;;;;1.60;1.40;;;18.60;97.20;;;;;;5057109;22;20710;-75
2021/06/15 04:09:01;;;;;;;1.50;0.90;;;18.60;96.60;;;;;;5047115;28;20485;-76
2021/06/15 04:11:30;;;;;;;1.47;0.90;;;18.70;96.30;;;;;;5030221;28;20487;-76
2021/06/15 04:13:58;;;;;;;1.50;1.10;;;18.70;96.70;;;;;;5034492;28;20978;-76
2021/06/15 04:16:26;;;;;;;1.43;1.00;;;18.70;96.30;;;;;;5045330;28;20910;-76
2021/06/15 04:18:55;;;;;;;1.50;0.90;;;18.80;96.70;;;;;;5063126;28;21108;-76
2021/06/15 04:21:23;;;;;;;1.50;0.90;;;18.80;96.40;;;;;;5054659;28;20821;-74
2021/06/15 04:23:57;;;;;;;1.47;1.00;;;18.90;96.10;;;;;;5066224;28;20886;-75
2021/06/15 04:26:24;;;;;;;1.50;0.90;;;18.90;96.90;;;;;;5051380;28;20477;-75
2021/06/15 04:28:51;;;;;;;1.43;0.90;;;19.00;96.40;;;;;;5061386;28;20466;-75
2021/06/15 04:31:22;;;;;;;1.50;1.00;;;19.00;96.80;;;;;;5040454;28;20494;-74
2021/06/15 04:33:52;;;;;;;1.43;0.90;;;19.00;96.70;;;;;;5047961;28;20461;-74
2021/06/15 04:36:20;;;;;;;1.43;0.90;;;19.10;96.90;;;;;;5045978;28;20484;-75
2021/06/15 04:38:48;;;;;;;1.47;0.90;;;19.10;96.80;;;;;;5054406;28;20457;-76
2021/06/15 04:41:19;;;;;;;1.43;0.90;;;19.10;97.20;;;;;;5047824;28;20492;-76
2021/06/15 04:43:50;;;;;;;1.43;0.90;;;19.20;97.50;;;;;;5052721;28;20465;-76
2021/06/15 04:46:21;;;;;;;1.40;0.90;;;19.30;97.60;;;;;;5052134;28;21014;-77
2021/06/15 04:48:51;;;;;;;1.50;0.90;;;19.30;97.90;;;;;;5059973;28;20473;-74
2021/06/15 04:51:21;;;;;;;1.40;0.90;;;19.30;97.70;;;;;;5046200;28;20534;-74
2021/06/15 04:53:49;;;;;;;1.40;0.90;;;19.30;97.70;;;;;;5049230;28;20519;-76
2021/06/15 04:56:18;;;;;;;1.40;0.93;;;19.30;97.80;;;;;;5050708;28;20485;-75
2021/06/15 04:58:48;;;;;;;1.50;0.90;;;19.30;97.70;;;;;;5051587;28;20542;-77
2021/06/15 05:01:17;;;;;;;1.50;0.90;;;19.30;98.10;;;;;;5049432;28;20478;-75
2021/06/15 05:03:44;;;;;;;1.43;0.90;;;19.30;98.10;;;;;;5044285;28;20462;-77
2021/06/15 05:06:12;;;;;;;1.47;0.90;;;19.30;97.80;;;;;;5051162;28;20480;-77
2021/06/15 05:08:44;;;;;;;1.50;0.90;;;19.30;98.20;;;;;;5050362;28;20877;-76
2021/06/15 05:11:12;;;;;;;1.47;1.00;;;19.40;98.00;;;;;;5052481;28;20470;-78
2021/06/15 05:13:41;;;;;;;1.40;0.90;;;19.50;98.00;;;;;;5063306;28;20920;-76
2021/06/15 05:16:10;;;;;;;1.40;0.87;;;19.50;97.50;;;;;;5048137;28;20489;-78
2021/06/15 05:18:37;;;;;;;1.50;0.90;;;19.60;97.70;;;;;;5063861;28;20875;-76
2021/06/15 05:21:08;;;;;;;1.50;0.90;;;19.70;97.30;;;;;;5045879;28;20457;-77
2021/06/15 05:23:40;;;;;;;1.50;0.90;;;19.80;96.40;;;;;;5054159;28;20768;-77
2021/06/15 05:26:07;;;;;;;1.50;1.20;;;19.80;96.20;;;;;;5051865;28;20502;-79
2021/06/15 05:28:35;;;;;;;1.50;0.90;;;19.80;96.20;;;;;;5066080;28;21016;-79
2021/06/15 05:33:50;;;;;;;1.47;0.90;;;19.80;96.30;;;;;;5061952;28;20454;-78
2021/06/15 05:36:18;;;;;;;1.43;0.90;;;19.80;96.40;;;;;;5051217;28;20473;-79
2021/06/15 05:38:45;;;;;;;1.47;0.90;;;19.80;96.50;;;;;;5069604;28;20468;-77
2021/06/15 05:41:13;;;;;;;1.60;1.40;;;19.80;96.30;;;;;;5051996;28;20863;-76
2021/06/15 05:43:40;;;;;;;1.50;0.90;;;19.80;96.20;;;;;;5065770;28;20596;-77
2021/06/15 05:46:09;;;;;;;1.50;0.90;;;19.80;96.40;;;;;;5048545;28;20568;-79
2021/06/15 05:48:35;;;;;;;1.47;0.90;;;19.90;96.50;;;;;;5049020;28;20841;-77
2021/06/15 05:51:04;;;;;;;1.43;0.90;;;20.00;96.20;;;;;;5047764;28;20461;-78
2021/06/15 05:53:32;;;;;;;1.47;0.90;;;20.10;95.70;;;;;;5068079;28;20461;-78
2021/06/15 05:55:58;;;;;;;1.50;0.90;;;20.20;95.40;;;;;;5051265;28;20481;-78
2021/06/15 05:58:28;;;;;;;1.50;0.90;;;20.40;95.30;;;;;;5067659;28;20469;-75
2021/06/15 06:00:55;;;;;;;1.50;0.90;;;20.50;95.10;;;;;;5058986;28;20529;-77
2021/06/15 06:03:31;;;;;;;1.50;0.90;;;20.60;94.40;;;;;;5050395;28;20459;-78
2021/06/15 06:08:57;;;;;;;1.50;0.90;;;20.90;94.10;;;;;;4993496;28;20453;-76
2021/06/15 06:11:30;;;;;;;1.50;0.90;;;21.00;93.70;;;;;;4995930;28;20483;-77
2021/06/15 06:13:57;;;;;;;1.50;0.90;;;21.10;93.40;;;;;;5034673;28;20466;-77
2021/06/15 06:16:24;;;;;;;1.50;0.90;;;21.30;92.80;;;;;;5052853;28;21035;-77
2021/06/15 06:18:52;;;;;;;1.50;0.90;;;21.60;91.80;;;;;;5058121;28;20454;-77
2021/06/15 06:21:19;;;;;;;1.50;0.90;;;21.80;90.80;;;;;;5052431;28;20470;-77
2021/06/15 06:23:46;;;;;;;1.50;0.90;;;21.90;90.20;;;;;;5071591;28;20541;-77
2021/06/15 06:26:13;;;;;;;1.50;0.90;;;22.20;89.90;;;;;;5058641;28;20509;-77
2021/06/15 06:28:40;;;;;;;1.50;0.90;;;22.40;88.80;;;;;;5066653;28;20496;-77
2021/06/15 06:31:07;;;;;;;1.50;0.90;;;22.60;88.30;;;;;;5062067;28;20505;-77
2021/06/15 06:33:34;;;;;;;1.50;0.90;;;22.70;87.80;;;;;;5070210;28;20492;-77
2021/06/15 06:36:02;;;;;;;1.47;0.90;;;22.80;87.80;;;;;;5055926;28;20508;-77
2021/06/15 06:38:29;;;;;;;1.50;0.90;;;23.10;87.70;;;;;;5069022;28;20466;-76
2021/06/15 06:40:55;;;;;;;1.50;0.90;;;23.10;86.60;;;;;;5051210;28;20458;-76
2021/06/15 06:43:22;;;;;;;1.50;1.10;;;23.20;86.90;;;;;;5061545;28;20481;-74
2021/06/15 06:45:49;;;;;;;1.50;0.87;;;23.40;86.70;;;;;;5052958;28;20478;-76
2021/06/15 06:48:16;;;;;;;1.50;0.90;;;23.70;86.00;;;;;;5063596;28;20497;-76
2021/06/15 06:50:43;;;;;;;1.50;0.90;;;23.70;86.00;;;;;;5058799;28;20959;-77
2021/06/15 06:53:11;;;;;;;1.50;0.90;;;24.10;85.70;;;;;;5035405;28;20512;-76
2021/06/15 06:55:38;;;;;;;1.47;0.90;;;24.40;85.00;;;;;;5057388;28;20489;-76
2021/06/15 06:58:06;;;;;;;1.50;0.87;;;24.60;83.60;;;;;;5032125;28;20556;-76
2021/06/15 07:00:34;;;;;;;1.47;0.90;;;24.60;83.10;;;;;;5057616;28;20471;-77
2021/06/15 07:03:00;;;;;;;1.50;0.90;;;24.70;83.10;;;;;;5052267;28;20480;-76
2021/06/15 07:05:27;;;;;;;1.50;0.90;;;24.80;83.50;;;;;;5063189;28;20493;-77
2021/06/15 07:07:54;;;;;;;1.50;0.90;;;24.80;82.60;;;;;;5051842;28;20478;-79
2021/06/15 07:10:22;;;;;;;1.43;0.83;;;24.80;82.30;;;;;;5060278;28;20466;-77
2021/06/15 07:12:50;;;;;;;1.47;0.80;;;24.90;82.80;;;;;;5054976;28;21022;-78
2021/06/15 07:15:18;;;;;;;1.43;0.80;;;25.00;82.00;;;;;;5066092;28;20491;-77
2021/06/15 07:17:44;;;;;;;1.50;0.90;;;25.20;82.50;;;;;;5057091;28;20482;-77
2021/06/15 07:20:12;;;;;;;1.50;0.90;;;25.40;82.20;;;;;;5061939;28;20461;-77
2021/06/15 07:22:40;;;;;;;1.50;0.90;;;25.70;80.90;;;;;;5056892;28;20485;-78
2021/06/15 07:25:08;;;;;;;1.47;0.80;;;25.90;80.50;;;;;;5064538;28;20553;-78
2021/06/15 07:27:36;;;;;;;1.50;0.80;;;26.10;80.90;;;;;;5055730;28;20511;-78
2021/06/15 07:30:04;;;;;;;1.50;0.80;;;26.30;79.70;;;;;;5062888;28;20742;-78
2021/06/15 07:32:31;;;;;;;1.50;0.83;;;26.50;79.80;;;;;;5052092;28;20904;-78
2021/06/15 07:35:03;;;;;;;1.50;0.90;;;26.40;78.80;;;;;;5067553;28;21070;-78
2021/06/15 07:37:30;;;;;;;1.50;0.80;;;26.30;78.80;;;;;;5050330;28;20489;-78
2021/06/15 07:39:58;;;;;;;1.80;1.30;;;26.40;78.80;;;;;;5067120;28;20564;-77
2021/06/15 07:42:28;;;;;;;1.50;0.87;;;26.40;79.50;;;;;;5044321;28;20490;-77
2021/06/15 07:44:58;;;;;;;1.50;0.80;;;26.50;78.70;;;;;;5055642;28;20486;-78
2021/06/15 07:47:26;;;;;;;1.50;0.90;;;26.70;79.60;;;;;;5039438;28;20509;-78
2021/06/15 07:49:53;;;;;;;1.50;0.80;;;26.90;78.30;;;;;;5056955;28;20534;-79
2021/06/15 07:52:27;;;;;;;1.47;0.83;;;27.00;78.10;;;;;;5044574;28;20486;-78
2021/06/15 07:54:54;;;;;;;1.50;0.90;;;27.10;77.20;;;;;;5057645;28;20484;-81
2021/06/15 07:57:21;;;;;;;1.50;0.90;;;27.10;76.50;;;;;;5041353;28;20470;-81
2021/06/15 07:59:48;;;;;;;1.50;0.90;;;27.30;76.00;;;;;;5056490;28;20470;-80
2021/06/15 08:02:16;;;;;;;1.50;0.90;;;27.40;75.90;;;;;;5053722;28;20481;-79
2021/06/15 08:04:44;;;;;;;1.50;0.80;;;27.30;75.70;;;;;;5058740;28;20463;-78
2021/06/15 08:07:11;;;;;;;1.50;0.80;;;27.30;75.40;;;;;;5044115;28;20478;-80
2021/06/15 08:09:37;;;;;;;1.47;0.80;;;27.30;76.10;;;;;;5053246;28;20839;-79
2021/06/15 08:12:05;;;;;;;1.50;0.80;;;27.30;76.40;;;;;;5046940;28;20517;-78
2021/06/15 08:14:32;;;;;;;1.40;0.80;;;27.40;76.20;;;;;;5062834;28;20688;-79
2021/06/15 08:17:02;;;;;;;1.50;0.80;;;27.60;75.70;;;;;;5054828;28;20479;-80
2021/06/15 08:19:31;;;;;;;1.50;0.80;;;27.70;74.30;;;;;;5065126;28;20972;-80
2021/06/15 08:21:58;;;;;;;1.60;1.00;;;27.90;74.80;;;;;;5045071;28;20474;-82
2021/06/15 08:24:25;;;;;;;1.50;0.83;;;28.00;74.00;;;;;;5054759;28;20457;-81
2021/06/15 08:26:52;;;;;;;1.50;0.80;;;28.10;73.10;;;;;;5053620;28;20484;-81
2021/06/15 08:29:19;;;;;;;1.43;0.80;;;28.30;73.50;;;;;;5061273;28;20488;-81
2021/06/15 08:31:46;;;;;;;1.47;0.80;;;28.20;72.70;;;;;;5044962;28;20577;-81
2021/06/15 08:34:13;;;;;;;1.50;0.80;;;28.20;72.50;;;;;;5050799;28;20500;-77
2021/06/15 08:36:41;;;;;;;1.50;0.80;;;28.20;72.40;;;;;;5047821;28;20535;-81
2021/06/15 08:39:09;;;;;;;1.50;1.00;;;28.40;72.70;;;;;;5062298;28;20461;-80
2021/06/15 08:41:38;;;;;;;1.50;1.00;;;28.40;73.10;;;;;;5056402;28;20487;-80
2021/06/15 08:44:05;;;;;;;1.50;0.90;;;28.30;72.60;;;;;;5062172;28;20461;-82
2021/06/15 08:46:33;;;;;;;1.50;0.80;;;28.30;72.10;;;;;;5056170;28;20492;-84
2021/06/15 08:49:03;;;;;;;1.40;0.80;;;28.20;73.60;;;;;;5065462;28;20467;-80
2021/06/15 08:51:33;;;;;;;1.47;0.80;;;28.20;72.80;;;;;;5043997;28;20488;-79
2021/06/15 08:54:04;;;;;;;1.47;0.80;;;28.30;73.20;;;;;;5062715;28;20939;-81
2021/06/15 08:56:33;;;;;;;1.47;0.80;;;28.50;72.70;;;;;;5048957;28;20492;-81
2021/06/15 08:59:12;;;;;;;1.43;0.80;;;28.80;72.60;;;;;;5065660;28;20555;-83
2021/06/15 09:01:39;;;;;;;1.50;0.80;;;29.00;72.20;;;;;;5047085;28;20495;-81
2021/06/15 09:04:07;;;;;;;1.43;0.80;;;29.00;70.20;;;;;;5055910;28;20842;-81
2021/06/15 09:06:33;;;;;;;1.50;0.80;;;29.10;72.00;;;;;;5044400;28;20494;-79
2021/06/15 09:09:02;;;;;;;1.50;0.80;;;29.10;70.70;;;;;;5052614;28;20495;-82
2021/06/15 09:11:50;;;;;;;1.50;0.80;;;29.20;70.60;;;;;;5053925;28;21256;-82
2021/06/15 09:14:17;;;;;;;1.47;0.90;;;29.10;71.20;;;;;;5059729;28;20480;-81
2021/06/15 09:16:50;;;;;;;1.47;0.80;;;29.10;70.70;;;;;;5044592;28;20774;-80
2021/06/15 09:19:18;;;;;;;1.50;0.80;;;29.30;71.30;;;;;;5045536;28;20579;-82
2021/06/15 09:21:47;;;;;;;1.47;0.80;;;29.40;70.60;;;;;;5043089;28;20558;-81
2021/06/15 09:24:20;;;;;;;1.50;0.97;;;29.40;69.80;;;;;;5055791;28;20492;-81
2021/06/15 09:27:03;;;;;;;1.50;0.80;;;29.30;70.40;;;;;;5053067;28;20493;-81
2021/06/15 09:29:38;;;;;;;1.47;0.90;;;29.40;69.40;;;;;;5062051;28;20982;-81
2021/06/15 09:32:06;;;;;;;1.43;0.80;;;29.40;70.50;;;;;;5043532;28;20507;-82
2021/06/15 09:34:34;;;;;;;1.47;0.80;;;29.50;69.30;;;;;;5063412;28;20472;-81
2021/06/15 09:37:05;;;;;;;1.47;0.80;;;29.50;69.80;;;;;;5035440;28;20959;-79
2021/06/15 09:39:34;;;;;;;1.43;0.80;;;29.50;69.30;;;;;;5057246;28;20471;-80
2021/06/15 09:42:02;;;;;;;1.50;1.00;;;29.30;70.20;;;;;;5055254;28;20480;-81
2021/06/15 09:44:31;;;;;;;1.47;0.80;;;29.30;70.50;;;;;;5065511;28;20469;-81
2021/06/15 09:46:59;;;;;;;1.40;0.80;;;29.40;70.00;;;;;;5054791;28;20487;-79
2021/06/15 09:49:31;;;;;;;1.43;0.80;;;29.50;69.10;;;;;;5066601;28;20461;-79
2021/06/15 09:52:16;;;;;;;1.47;0.80;;;29.60;69.40;;;;;;5049361;28;20481;-81
2021/06/15 09:54:47;;;;;;;1.50;0.80;;;29.70;69.00;;;;;;5065408;28;20850;-84
2021/06/15 09:57:21;;;;;;;1.50;0.83;;;29.70;69.30;;;;;;5054197;28;21528;-83
2021/06/15 10:00:09;;;;;;;1.50;0.90;;;29.70;68.00;;;;;;5068025;28;20564;-82
2021/06/15 10:02:36;;;;;;;1.47;0.90;;;29.80;68.60;;;;;;5059053;28;20572;-83
2021/06/15 10:05:20;;;;;;;1.50;0.90;;;30.00;67.90;;;;;;5063948;28;20532;-81
2021/06/15 10:07:46;;;;;;;1.50;0.90;;;30.10;67.20;;;;;;5036714;28;20544;-79
2021/06/15 10:10:16;;;;;;;1.60;0.93;;;29.90;66.30;;;;;;5066498;28;20492;-82
2021/06/15 10:12:46;;;;;;;1.47;0.80;;;29.90;67.00;;;;;;5037497;28;20650;-82
2021/06/15 10:15:14;;;;;;;1.47;0.80;;;29.90;67.80;;;;;;5059277;28;20578;-80
2021/06/15 10:17:45;;;;;;;1.47;0.80;;;30.00;66.60;;;;;;5039343;28;20981;-81
2021/06/15 10:20:13;;;;;;;1.47;0.80;;;30.00;65.50;;;;;;5067229;28;20613;-81
2021/06/15 10:22:42;;;;;;;1.50;1.00;;;29.90;65.50;;;;;;5041921;28;20481;-81
2021/06/15 10:25:10;;;;;;;1.47;0.80;;;30.00;64.10;;;;;;5064105;28;20512;-81
2021/06/15 10:27:40;;;;;;;1.47;0.80;;;30.00;65.20;;;;;;5039859;28;20475;-82
2021/06/15 10:33:14;;;;;;;1.47;0.80;;;30.00;65.60;;;;;;5032862;28;20480;-82
2021/06/15 10:35:47;;;;;;;1.40;0.80;;;29.90;65.10;;;;;;5063852;28;20801;-83
2021/06/15 10:38:19;;;;;;;1.50;1.00;;;30.00;64.50;;;;;;5028287;28;20484;-80
2021/06/15 10:40:54;;;;;;;1.50;0.97;;;30.20;65.90;;;;;;5062029;28;20461;-79
2021/06/15 10:43:48;;;;;;;1.40;0.80;;;30.20;63.70;;;;;;5049352;28;20480;-80
2021/06/15 10:46:41;;;;;;;1.47;0.80;;;30.20;64.40;;;;;;5055569;28;20480;-79
2021/06/15 10:49:11;;;;;;;1.47;0.83;;;30.20;62.80;;;;;;5067387;28;20468;-80
2021/06/15 10:51:55;;;;;;;1.47;0.90;;;30.20;62.90;;;;;;5057075;28;20682;-82
2021/06/15 10:54:41;;;;;;;1.47;0.80;;;30.10;63.20;;;;;;5063235;28;20832;-82
2021/06/15 10:57:28;;;;;;;1.47;0.80;;;30.30;62.80;;;;;;5057428;28;20488;-82
2021/06/15 11:00:11;;;;;;;1.40;0.80;;;30.30;61.40;;;;;;5066552;28;20951;-80
2021/06/15 11:02:44;;;;;;;1.40;0.80;;;30.30;62.20;;;;;;5058117;28;21867;-81
2021/06/15 11:05:41;;;;;;;1.47;0.80;;;30.20;62.10;;;;;;5066495;28;21037;-82
2021/06/15 11:08:19;;;;;;;1.40;0.80;;;30.30;63.90;;;;;;5029024;28;20541;-80
2021/06/15 11:10:51;;;;;;;1.40;0.80;;;30.40;63.10;;;;;;5052397;28;20571;-79
2021/06/15 11:13:19;;;;;;;1.47;0.80;;;30.50;63.50;;;;;;5064746;28;20464;-80
2021/06/15 11:16:01;;;;;;;1.47;0.80;;;30.60;63.30;;;;;;5062586;28;20548;-82
2021/06/15 11:18:29;;;;;;;1.47;0.80;;;30.70;62.70;;;;;;5066691;28;20500;-83
2021/06/15 11:20:56;;;;;;;1.47;0.80;;;30.70;62.90;;;;;;5056721;28;20530;-82
2021/06/15 11:23:29;;;;;;;1.43;0.80;;;30.90;62.60;;;;;;5055001;28;20522;-81
2021/06/15 11:26:03;;;;;;;1.43;0.80;;;31.00;61.30;;;;;;5060532;28;20513;-81
2021/06/15 11:28:37;;;;;;;1.50;1.00;;;31.00;60.50;;;;;;5066459;28;20207;-80
2021/06/15 11:31:34;;;;;;;1.47;0.80;;;31.00;61.20;;;;;;5051487;28;20464;-78
2021/06/15 11:34:26;;;;;;;1.47;0.87;;;30.90;60.40;;;;;;5056608;28;20532;-81
2021/06/15 11:36:57;;;;;;;1.40;0.80;;;30.80;59.80;;;;;;5049961;28;20481;-81
2021/06/15 11:39:38;;;;;;;1.43;0.80;;;30.70;61.10;;;;;;5065883;28;20227;-81
2021/06/15 11:42:23;;;;;;;1.47;0.80;;;30.70;61.00;;;;;;5042472;28;20254;-80
2021/06/15 11:45:06;;;;;;;1.40;0.80;;;30.70;61.50;;;;;;5052294;28;20227;-81
2021/06/15 11:47:38;;;;;;;1.43;0.80;;;30.70;61.80;;;;;;5036036;28;20477;-81
2021/06/15 11:50:18;;;;;;;1.50;0.93;;;30.80;61.20;;;;;;5054480;28;20471;-80
2021/06/15 11:52:50;;;;;;;1.43;0.80;;;30.90;60.00;;;;;;5030741;28;20523;-79
2021/06/15 11:55:23;;;;;;;1.40;0.80;;;30.80;59.40;;;;;;5060846;28;20704;-83
2021/06/15 11:57:56;;;;;;;1.40;0.80;;;30.80;60.30;;;;;;5045631;28;20481;-79
2021/06/15 12:00:23;;;;;;;1.40;0.80;;;31.00;59.70;;;;;;5062313;28;20213;-82
2021/06/15 12:03:05;;;;;;;1.47;0.80;;;31.10;58.90;;;;;;5053216;28;20483;-79
2021/06/15 12:05:36;;;;;;;1.40;0.80;;;31.10;59.50;;;;;;5058035;28;20384;-79
2021/06/15 12:08:09;;;;;;;1.43;0.80;;;31.10;58.80;;;;;;5053822;28;20477;-82
2021/06/15 12:10:37;;;;;;;1.70;1.37;;;31.20;58.40;;;;;;5061227;28;20467;-82
2021/06/15 12:13:09;;;;;;;1.43;0.80;;;30.90;59.70;;;;;;5053863;28;20288;-83
2021/06/15 12:15:54;;;;;;;1.40;0.80;;;31.00;59.10;;;;;;5064292;28;20227;-81
2021/06/15 12:18:41;;;;;;;1.43;0.80;;;31.10;59.50;;;;;;5031271;28;20287;-80
2021/06/15 12:21:13;;;;;;;1.43;0.90;;;31.10;59.20;;;;;;5050277;28;20927;-81
2021/06/15 12:23:42;;;;;;;1.43;0.80;;;31.20;59.10;;;;;;5050697;28;20465;-84
2021/06/15 12:26:16;;;;;;;1.50;1.00;;;31.10;59.10;;;;;;5051542;28;20239;-83
2021/06/15 12:28:44;;;;;;;1.50;0.90;;;31.00;60.40;;;;;;5044986;28;20497;-84
2021/06/15 12:31:15;;;;;;;1.47;0.80;;;30.90;59.30;;;;;;5046746;28;20515;-80
2021/06/15 12:33:44;;;;;;;1.40;0.80;;;31.00;59.40;;;;;;5049002;28;20469;-79
2021/06/15 12:36:14;;;;;;;1.47;0.80;;;31.20;59.40;;;;;;5050286;28;20237;-81
2021/06/15 12:38:42;;;;;;;1.40;0.80;;;31.30;58.90;;;;;;5061490;28;20486;-81
2021/06/15 12:41:10;;;;;;;1.40;0.80;;;31.40;59.90;;;;;;5051132;28;20910;-80
2021/06/15 12:43:38;;;;;;;1.40;0.80;;;31.70;59.80;;;;;;5064179;28;20210;-81
2021/06/15 12:46:13;;;;;;;1.43;0.80;;;32.10;58.70;;;;;;5054741;28;20595;-83
2021/06/15 12:48:51;;;;;;;1.50;1.10;;;32.20;58.30;;;;;;5040276;28;20198;-82
2021/06/15 12:51:20;;;;;;;1.43;0.80;;;32.20;57.10;;;;;;5049229;28;20237;-81
2021/06/15 12:53:47;;;;;;;1.47;0.80;;;32.00;57.90;;;;;;5062779;28;20286;-81
2021/06/15 12:56:17;;;;;;;1.43;0.80;;;31.70;58.90;;;;;;5051160;28;20226;-82
2021/06/15 12:58:50;;;;;;;1.40;0.80;;;31.40;58.10;;;;;;5062399;28;20513;-80
2021/06/15 13:01:20;;;;;;;1.40;0.80;;;30.90;58.40;;;;;;5049154;28;20230;-81
2021/06/15 13:03:53;;;;;;;1.43;0.80;;;30.70;59.50;;;;;;5065021;28;20221;-83
2021/06/15 13:06:44;;;;;;;1.47;0.80;;;30.40;59.80;;;;;;5049615;28;20501;-84
2021/06/15 13:09:15;;;;;;;1.47;0.80;;;30.20;60.10;;;;;;5062159;28;20510;-81
2021/06/15 13:12:00;;;;;;;1.40;0.80;;;30.30;60.50;;;;;;5051688;28;20524;-80
2021/06/15 13:14:30;;;;;;;1.43;0.90;;;30.20;59.70;;;;;;5059688;28;20460;-82